NEODyS-2

Near Earth Objects - Dynamic Site
NEODyS ∴ Observatories ∴ Site 691 ∴ Obs & residuals
Contact »
691  ▹ 
OBSERVATIONS AND RESIDUALS

691-Steward Observatory, Kitt Peak-Spacewatch

Detections | Residuals | Detections & Residuals

[1-200] [201-400] [401-600] [601-800] [801-1000] [1001-1200] [1201-1400] [1401-1600] [1601-1800] [1801-2000] [2001-2200] [2201-2400] [2401-2600] [2601-2800] [2801-3000] [3001-3200] [3201-3400] [3401-3600] [3601-3800] [3801-4000] [4001-4200] [4201-4400] [4401-4600] [4601-4800] [4801-5000] [5001-5200] [5201-5400] [5401-5600] [5601-5800] [5801-6000] [6001-6200] [6201-6400] [6401-6600] [6601-6800] [6801-7000] [7001-7200] [7201-7400] [7401-7600] [7601-7800] [7801-8000] [8001-8200] [8201-8400] [8401-8600] [8601-8800] [8801-9000] [9001-9200] [9201-9400] [9401-9600] [9601-9800] [9801-10000] [10001-10200] [10201-10400] [10401-10600] [10601-10800] [10801-11000] [11001-11200] [11201-11400] [11401-11600] [11601-11800] [11801-12000] [12001-12200] [12201-12400] [12401-12600] [12601-12800] [12801-13000] [13001-13200] [13201-13400] [13401-13600] [13601-13800] [13801-14000] [14001-14200] [14201-14400] [14401-14600] [14601-14800] [14801-15000] [15001-15200] [15201-15400] [15401-15600] [15601-15800] [15801-16000] [16001-16200] [16201-16400] [16401-16600] [16601-16800] [16801-17000] [17001-17200] [17201-17400] [17401-17600] [17601-17800] [17801-18000] [18001-18200] [18201-18400] [18401-18600] [18601-18800] [18801-19000] [19001-19200] [19201-19400] [19401-19600] [19601-19800] [19801-20000] [20001-20200] [20201-20400] [20401-20600] [20601-20800] [20801-21000] [21001-21200] [21201-21400] [21401-21600] [21601-21800] [21801-22000] [22001-22200] [22201-22400] [22401-22600] [22601-22800] [22801-23000] [23001-23200] [23201-23400] [23401-23600] [23601-23800] [23801-24000] [24001-24200] [24201-24400] [24401-24600] [24601-24800] [24801-25000] [25001-25200] [25201-25400] [25401-25600] [25601-25800] [25801-26000] [26001-26200] [26201-26400] [26401-26600] [26601-26800] [26801-27000] [27001-27200] [27201-27400] [27401-27600] [27601-27800] [27801-28000] [28001-28200] [28201-28400] [28401-28600] [28601-28800] [28801-29000] [29001-29200] [29201-29400] [29401-29600] [29601-29800] [29801-30000] [30001-30200] [30201-30400] [30401-30600] [30601-30800] [30801-31000] [31001-31200] [31201-31400] [31401-31600] [31601-31800] [31801-32000] [32001-32200] [32201-32400] [32401-32600] [32601-32800] [32801-33000] [33001-33200] [33201-33400] [33401-33600] [33601-33800] [33801-34000] [34001-34200] [34201-34400] [34401-34600] [34601-34800] [34801-35000] [35001-35200] [35201-35400] [35401-35600] [35601-35800] [35801-36000] [36001-36200] [36201-36400] [36401-36600] [36601-36800] [36801-37000] [37001-37200] [37201-37400] [37401-37600] [37601-37800] [37801-38000] [38001-38200] [38201-38400] [38401-38600] [38601-38800] [38801-39000] [39001-39200] [39201-39400] [39401-39600] [39601-39800] [39801-40000] [40001-40200] [40201-40400] [40401-40600] [40601-40800] [40801-41000] [41001-41200] [41201-41400] [41401-41600] [41601-41800] [41801-42000] [42001-42200] [42201-42400] [42401-42600] [42601-42800] [42801-43000] [43001-43200] [43201-43400] [43401-43600] [43601-43800] [43801-44000] [44001-44200] [44201-44400] [44401-44600] [44601-44800] [44801-45000] [45001-45200] [45201-45400] [45401-45600] [45601-45800] [45801-46000] [46001-46200] [46201-46400] [46401-46600] [46601-46800] [46801-47000] [47001-47200] [47201-47400] [47401-47600] [47601-47800] [47801-48000] [48001-48200] [48201-48400] [48401-48600] [48601-48800] [48801-49000] [49001-49200] [49201-49400] [49401-49600] [49601-49800] [49801-50000] [50001-50200] [50201-50400] [50401-50600] [50601-50741]

Designation T Tech N Date Right Ascension Declination Apparent Magnitude Star Catalog Site code χ Used A Used M
yr-mo-day precision hr:min:sec precision rms F bias residual deg min sec precision rms F bias residual mag/col rms residual
2002GB O C 2012-04-10.42975 1.000E-05 15:08:15.020 1.500E-01 0.500 F 0.136 -0.257 +00° 52' 42.70" 1.000E-01 0.500 F 0.145 0.048 o 691 0.52 Yes No
Cernunnos O C H 2012-04-13.21598 1.000E-05 14:12:46.000 1.500E-01 0.500 F 0.117 -0.488 -03° 43' 29.20" 1.000E-01 0.500 F 0.112 0.368 o 691 1.23 Yes No
Cernunnos O C H 2012-04-13.23375 1.000E-05 14:12:44.960 1.500E-01 0.500 F 0.118 0.454 -03° 43' 19.00" 1.000E-01 0.500 F 0.112 -0.138 o 691 0.96 Yes No
Cernunnos O C H 2012-04-13.25152 1.000E-05 14:12:43.840 1.500E-01 0.500 F 0.118 0.243 -03° 43' 08.10" 1.000E-01 0.500 F 0.112 0.052 o 691 0.50 Yes No
1998QK56 O C 2012-04-13.27421 1.000E-05 15:38:14.140 1.500E-01 0.500 F 0.024 -0.220 +00° 18' 07.50" 1.000E-01 0.500 F 0.251 -0.515 19.7 V 0.70 0.00 o 691 1.12 Yes Yes
2012GV11 O C 2012-04-13.27931 1.000E-05 15:32:00.910 1.500E-01 0.500 F 0.046 -0.479 -02° 14' 47.60" 1.000E-01 0.500 F 0.192 0.175 21.2 V 0.70 0.05 o 691 1.03 Yes Yes
1998QK56 O C 2012-04-13.29192 1.000E-05 15:38:12.680 1.500E-01 0.500 F 0.024 -0.517 +00° 18' 24.30" 1.000E-01 0.500 F 0.251 0.176 20.2 V 0.70 0.50 o 691 1.09 Yes Yes
2012GV11 O C 2012-04-13.29703 1.000E-05 15:31:59.340 1.500E-01 0.500 F 0.046 -0.525 -02° 14' 18.70" 1.000E-01 0.500 F 0.192 -0.173 21.2 V 0.70 0.05 o 691 1.12 Yes Yes
1998QK56 O C 2012-04-13.30966 1.000E-05 15:38:11.260 1.500E-01 0.500 F 0.024 -0.105 +00° 18' 39.80" 1.000E-01 0.500 F 0.251 -0.457 20.0 V 0.70 0.30 o 691 0.94 Yes Yes
2012GV11 O C 2012-04-13.31478 1.000E-05 15:31:57.740 1.500E-01 0.500 F 0.046 -0.772 -02° 13' 48.90" 1.000E-01 0.500 F 0.192 0.310 21.3 V 0.70 0.15 o 691 1.68 Yes Yes
2002GK8 O C 2012-04-13.44605 1.000E-05 16:03:45.130 1.500E-01 0.500 F -0.002 -0.598 -03° 29' 40.30" 1.000E-01 0.500 F 0.218 -0.324 20.8 V 0.70 -0.37 o 691 1.37 Yes Yes
2011MB2 O C 2012-04-13.44605 1.000E-05 16:03:59.150 1.500E-01 0.500 F -0.002 -1.576 -03° 31' 47.80" 1.000E-01 0.500 F 0.218 -0.348 21.8 V 0.70 0.87 o 691 3.22 No Yes
2006VY13 O C 2012-04-13.45620 1.000E-05 15:58:44.690 1.500E-01 0.500 F 0.117 -1.316 -05° 33' 25.30" 1.000E-01 0.500 F 0.215 0.402 16.8 V 0.70 -0.33 o 691 2.76 Yes Yes
2002GK8 O C 2012-04-13.46378 1.000E-05 16:03:43.860 1.500E-01 0.500 F -0.002 -0.446 -03° 30' 02.70" 1.000E-01 0.500 F 0.218 -0.141 21.1 V 0.70 -0.06 o 691 0.94 Yes Yes
2011MB2 O C 2012-04-13.46378 1.000E-05 16:03:57.550 1.500E-01 0.500 F -0.002 -0.680 -03° 31' 43.20" 1.000E-01 0.500 F 0.218 0.181 21.1 V 0.70 0.17 o 691 1.41 Yes Yes
2006VY13 O C 2012-04-13.47394 1.000E-05 15:58:44.040 1.500E-01 0.500 F 0.117 0.472 -05° 33' 22.80" 1.000E-01 0.500 F 0.215 -0.150 16.8 V 0.70 -0.33 o 691 0.99 Yes Yes
2002GK8 O C 2012-04-13.48151 1.000E-05 16:03:42.580 1.500E-01 0.500 F -0.002 -0.454 -03° 30' 25.20" 1.000E-01 0.500 F 0.218 -0.050 20.6 V 0.70 -0.56 o 691 0.92 Yes Yes
2011MB2 O C 2012-04-13.48151 1.000E-05 16:03:55.880 1.500E-01 0.500 F -0.002 -0.853 -03° 31' 38.60" 1.000E-01 0.500 F 0.218 0.701 21.2 V 0.70 0.27 o 691 2.22 Yes Yes
2006VY13 O C 2012-04-13.49166 1.000E-05 15:58:43.240 1.500E-01 0.500 F 0.117 -0.059 -05° 33' 19.60" 1.000E-01 0.500 F 0.215 -0.015 17.0 V 0.70 -0.13 o 691 0.12 Yes Yes
Akhenaten O C 2012-04-16.35890 1.000E-05 16:05:20.450 1.500E-01 0.500 F 0.163 -0.401 -12° 32' 56.40" 1.000E-01 0.500 F 0.127 0.215 19.6 V 0.70 -0.02 o 691 0.91 Yes Yes
Akhenaten O C 2012-04-16.37745 1.000E-05 16:05:18.990 1.500E-01 0.500 F 0.163 -0.470 -12° 32' 47.50" 1.000E-01 0.500 F 0.127 -0.258 19.6 V 0.70 -0.02 o 691 1.07 Yes Yes
Akhenaten O C 2012-04-16.39599 1.000E-05 16:05:17.530 1.500E-01 0.500 F 0.163 -0.373 -12° 32' 37.40" 1.000E-01 0.500 F 0.127 0.337 20.4 V 0.70 0.78 o 691 1.00 Yes Yes
1997EH29 O C H 2012-04-17.16571 1.000E-05 13:31:14.570 1.500E-01 0.500 F 0.159 -1.863 +04° 09' 19.20" 1.000E-01 0.500 F 0.036 -0.109 20.8 V 0.70 -0.09 o 691 3.71 No Yes
1997EH29 O C H 2012-04-17.18348 1.000E-05 13:31:12.430 1.500E-01 0.500 F 0.159 0.271 +04° 09' 37.60" 1.000E-01 0.500 F 0.036 -0.888 21.1 V 0.70 0.21 o 691 1.87 Yes Yes
1997EH29 O C H 2012-04-17.20121 1.000E-05 13:31:10.100 1.500E-01 0.500 F 0.159 -0.449 +04° 09' 56.50" 1.000E-01 0.500 F 0.036 -1.115 o 691 2.42 Yes No
2012DO O C 2012-04-17.23554 1.000E-05 14:46:36.790 1.500E-01 0.500 F 0.202 -0.085 +01° 38' 09.70" 1.000E-01 0.500 F 0.243 -0.115 17.6 V 0.70 0.13 o 691 0.29 Yes Yes
2012DO O C 2012-04-17.25330 1.000E-05 14:46:39.510 1.500E-01 0.500 F 0.166 0.032 +01° 38' 55.30" 1.000E-01 0.500 F 0.187 0.266 17.5 V 0.70 0.03 o 691 0.54 Yes Yes
2012DO O C 2012-04-17.27107 1.000E-05 14:46:42.210 1.500E-01 0.500 F 0.166 0.192 +01° 39' 40.40" 1.000E-01 0.500 F 0.187 0.127 18.8 V 0.70 1.33 o 691 0.46 Yes Yes
2012FR62 O C H 2012-04-17.28092 1.000E-05 15:34:43.680 1.500E-01 0.500 F 0.043 -0.534 +00° 49' 44.00" 1.000E-01 0.500 F 0.178 0.312 20.5 V 0.70 0.20 o 691 1.25 Yes Yes
2012FR62 O C H 2012-04-17.29870 1.000E-05 15:34:42.220 1.500E-01 0.500 F 0.043 -0.620 +00° 50' 41.90" 1.000E-01 0.500 F 0.178 1.067 20.5 V 0.70 0.20 o 691 2.48 Yes Yes
2012FR62 O C H 2012-04-17.31644 1.000E-05 15:34:40.670 1.500E-01 0.500 F 0.043 -2.019 +00° 51' 39.20" 1.000E-01 0.500 F 0.178 1.359 20.6 V 0.70 0.30 o 691 4.83 No Yes
2003HB6 O C 2012-04-17.40981 1.000E-05 16:12:49.930 1.500E-01 0.500 F 0.301 -0.085 -09° 13' 03.50" 1.000E-01 0.500 F 0.176 -0.080 19.4 V 0.70 -0.19 o 691 0.23 Yes Yes
2003HB6 O C 2012-04-17.42756 1.000E-05 16:12:50.450 1.500E-01 0.500 F 0.301 -0.387 -09° 12' 52.60" 1.000E-01 0.500 F 0.176 0.158 19.4 V 0.70 -0.19 o 691 0.84 Yes Yes
2003HB6 O C 2012-04-17.44533 1.000E-05 16:12:50.990 1.500E-01 0.500 F 0.301 -0.404 -09° 12' 42.30" 1.000E-01 0.500 F 0.176 -0.240 19.3 V 0.70 -0.29 o 691 0.94 Yes Yes
2001SZ269 O C 2012-04-17.46289 1.000E-05 15:53:37.070 1.500E-01 0.500 F 0.283 -0.091 -05° 05' 07.50" 1.000E-01 0.500 F 0.163 0.048 17.9 V 0.70 0.56 o 691 0.21 Yes Yes
2006VY13 O C 2012-04-17.46537 1.000E-05 15:55:56.790 1.500E-01 0.500 F 0.181 -0.030 -05° 23' 29.90" 1.000E-01 0.500 F 0.158 0.039 17.0 V 0.70 -0.15 o 691 0.10 Yes Yes
2002GK8 O C 2012-04-17.46537 1.000E-05 15:58:29.050 1.500E-01 0.500 F 0.095 -0.304 -05° 02' 11.40" 1.000E-01 0.500 F 0.146 0.617 20.6 V 0.70 -0.31 o 691 1.38 Yes Yes
2011MB2 O C H 2012-04-17.47046 1.000E-05 15:57:19.710 1.500E-01 0.500 F 0.123 0.065 -03° 16' 50.00" 1.000E-01 0.500 F 0.233 0.052 21.1 V 0.70 0.38 o 691 0.17 Yes Yes
2001SZ269 O C 2012-04-17.47814 1.000E-05 15:53:42.850 1.500E-01 0.500 F 0.283 -0.214 -05° 04' 52.10" 1.000E-01 0.500 F 0.163 0.083 18.0 V 0.70 0.66 o 691 0.46 Yes Yes
2006VY13 O C 2012-04-17.48062 1.000E-05 15:55:55.960 1.500E-01 0.500 F 0.181 -0.202 -05° 23' 27.90" 1.000E-01 0.500 F 0.158 0.027 17.0 V 0.70 -0.15 o 691 0.41 Yes Yes
2002GK8 O C 2012-04-17.48062 1.000E-05 15:58:27.630 1.500E-01 0.500 F 0.095 -0.143 -05° 02' 34.10" 1.000E-01 0.500 F 0.146 0.665 20.5 V 0.70 -0.41 o 691 1.37 Yes Yes
2011MB2 O C H 2012-04-17.48572 1.000E-05 15:57:17.950 1.500E-01 0.500 F 0.123 0.262 -03° 16' 47.10" 1.000E-01 0.500 F 0.233 -0.379 o 691 0.93 Yes No
2001SZ269 O C 2012-04-17.49342 1.000E-05 15:53:48.680 1.500E-01 0.500 F 0.283 -0.071 -05° 04' 36.60" 1.000E-01 0.500 F 0.163 0.130 17.9 V 0.70 0.57 o 691 0.30 Yes Yes
2006VY13 O C 2012-04-17.49591 1.000E-05 15:55:55.150 1.500E-01 0.500 F 0.181 -0.111 -05° 23' 25.90" 1.000E-01 0.500 F 0.158 0.000 17.0 V 0.70 -0.15 o 691 0.22 Yes Yes
2002GK8 O C 2012-04-17.49591 1.000E-05 15:58:26.090 1.500E-01 0.500 F 0.095 -1.745 -05° 02' 57.40" 1.000E-01 0.500 F 0.146 0.178 20.8 V 0.70 -0.11 o 691 3.48 No Yes
2004FE31 O C 2012-04-18.15761 1.000E-05 13:26:35.320 1.500E-01 0.500 F 0.158 0.768 -06° 46' 25.90" 1.000E-01 0.500 F 0.065 -0.609 20.0 V 0.70 0.24 o 691 1.96 Yes Yes
1996FR3 O C 2012-04-18.16519 1.000E-05 13:29:11.740 1.500E-01 0.500 F 0.259 -0.323 -08° 53' 31.80" 1.000E-01 0.500 F 0.083 0.257 18.7 V 0.70 0.22 o 691 0.83 Yes Yes
2004FE31 O C 2012-04-18.17534 1.000E-05 13:26:33.580 1.500E-01 0.500 F 0.158 -0.599 -06° 46' 07.10" 1.000E-01 0.500 F 0.065 -0.036 20.3 V 0.70 0.54 o 691 1.20 Yes Yes
1996FR3 O C 2012-04-18.18292 1.000E-05 13:29:09.680 1.500E-01 0.500 F 0.259 -0.196 -08° 53' 23.80" 1.000E-01 0.500 F 0.083 0.040 19.1 V 0.70 0.62 o 691 0.40 Yes Yes
2004FE31 O C 2012-04-18.19306 1.000E-05 13:26:31.950 1.500E-01 0.500 F 0.158 -0.275 -06° 45' 48.70" 1.000E-01 0.500 F 0.065 0.138 20.0 V 0.70 0.23 o 691 0.61 Yes Yes
1996FR3 O C 2012-04-18.20065 1.000E-05 13:29:07.620 1.500E-01 0.500 F 0.259 -0.026 -08° 53' 15.70" 1.000E-01 0.500 F 0.083 -0.084 18.8 V 0.70 0.32 o 691 0.18 Yes Yes
2001FZ57 O C 2012-04-19.17734 1.000E-05 11:56:02.320 1.500E-01 0.500 F 0.185 -0.316 +03° 45' 28.00" 1.000E-01 0.500 F 0.140 0.009 o 691 0.64 Yes No
2012FN62 O C 2012-04-19.18024 1.000E-05 12:02:10.690 1.500E-01 0.500 F 0.092 -0.258 +12° 04' 12.30" 1.000E-01 0.500 F 0.228 -0.391 o 691 0.94 Yes No
2001FZ57 O C 2012-04-19.18826 1.000E-05 11:55:59.420 1.500E-01 0.500 F 0.185 -0.027 +03° 45' 27.80" 1.000E-01 0.500 F 0.140 -0.231 o 691 0.47 Yes No
2012FN62 O C 2012-04-19.19116 1.000E-05 12:02:10.070 1.500E-01 0.500 F 0.092 -0.446 +12° 04' 17.80" 1.000E-01 0.500 F 0.228 0.084 o 691 0.91 Yes No
2001FZ57 O C 2012-04-19.19918 1.000E-05 11:55:56.480 1.500E-01 0.500 F 0.185 -0.324 +03° 45' 27.00" 1.000E-01 0.500 F 0.140 -1.063 o 691 2.23 Yes No
2012FN62 O C 2012-04-19.20207 1.000E-05 12:02:09.440 1.500E-01 0.500 F 0.092 -0.783 +12° 04' 22.60" 1.000E-01 0.500 F 0.228 -0.129 o 691 1.60 Yes No
2012GX11 O C 2012-04-19.27963 1.000E-05 15:54:46.920 1.500E-01 0.500 F 0.153 -0.451 +03° 41' 44.80" 1.000E-01 0.500 F 0.120 -0.132 o 691 0.95 Yes No
1998QK56 O C 2012-04-19.28235 1.000E-05 15:29:52.860 1.500E-01 0.500 F 0.119 0.005 +01° 45' 07.20" 1.000E-01 0.500 F 0.125 -0.024 o 691 0.05 Yes No
2012GX11 O C 2012-04-19.29737 1.000E-05 15:54:48.330 1.500E-01 0.500 F 0.153 -0.502 +03° 41' 38.30" 1.000E-01 0.500 F 0.120 -0.452 o 691 1.36 Yes No
1998QK56 O C 2012-04-19.30009 1.000E-05 15:29:51.250 1.500E-01 0.500 F 0.119 -0.129 +01° 45' 21.70" 1.000E-01 0.500 F 0.125 -0.122 o 691 0.36 Yes No
2012FR62 O C H 2012-04-19.30009 1.000E-05 15:32:02.480 1.500E-01 0.500 F 0.068 0.320 +02° 37' 00.00" 1.000E-01 0.500 F 0.092 -0.322 o 691 0.91 Yes No
2012GX11 O C 2012-04-19.31512 1.000E-05 15:54:49.740 1.500E-01 0.500 F 0.153 -0.402 +03° 41' 32.10" 1.000E-01 0.500 F 0.120 -0.443 o 691 1.21 Yes No
2012FR62 O C H 2012-04-19.31784 1.000E-05 15:32:00.980 1.500E-01 0.500 F 0.068 0.704 +02° 37' 55.70" 1.000E-01 0.500 F 0.092 -0.713 o 691 2.02 Yes No
1998QK56 O C 2012-04-19.31784 1.000E-05 15:29:49.650 1.500E-01 0.500 F 0.119 -0.046 +01° 45' 36.70" 1.000E-01 0.500 F 0.125 0.279 o 691 0.57 Yes No
2012DX32 O C 2012-04-19.34425 1.000E-05 15:45:17.480 1.500E-01 0.500 F 0.127 1.184 -12° 43' 17.90" 1.000E-01 0.500 F 0.143 2.064 o 691 4.65 No No
2012DX32 O C 2012-04-19.36278 1.000E-05 15:45:18.280 1.500E-01 0.500 F 0.127 0.035 -12° 43' 23.60" 1.000E-01 0.500 F 0.143 -0.120 o 691 0.26 Yes No
2012DX32 O C 2012-04-19.38133 1.000E-05 15:45:19.150 1.500E-01 0.500 F 0.127 -0.018 -12° 43' 27.40" 1.000E-01 0.500 F 0.143 -0.488 o 691 1.00 Yes No
2000EV70 O C H 2012-04-20.15907 1.000E-05 13:16:34.350 1.500E-01 0.500 F 0.190 -0.026 -03° 41' 34.10" 1.000E-01 0.500 F 0.089 -0.460 o 691 0.92 Yes No
2005EJ O C 2012-04-20.17417 1.000E-05 13:34:24.470 1.500E-01 0.500 F 0.157 -0.223 -05° 33' 51.60" 1.000E-01 0.500 F -0.025 0.161 19.7 V 0.70 0.64 o 691 0.55 Yes Yes
2000EV70 O C H 2012-04-20.17680 1.000E-05 13:16:31.740 1.500E-01 0.500 F 0.190 0.152 -03° 41' 22.40" 1.000E-01 0.500 F 0.089 -0.823 o 691 1.68 Yes No
2005EJ O C 2012-04-20.19192 1.000E-05 13:34:22.070 1.500E-01 0.500 F 0.157 -0.511 -05° 34' 12.70" 1.000E-01 0.500 F -0.025 0.040 20.0 V 0.70 0.94 o 691 1.03 Yes Yes
2000EV70 O C H 2012-04-20.19455 1.000E-05 13:16:29.110 1.500E-01 0.500 F 0.190 0.164 -03° 41' 10.20" 1.000E-01 0.500 F 0.089 -0.699 o 691 1.44 Yes No
2005EJ O C 2012-04-20.20966 1.000E-05 13:34:19.720 1.500E-01 0.500 F 0.157 0.066 -05° 34' 33.60" 1.000E-01 0.500 F -0.025 0.087 19.9 V 0.70 0.84 o 691 0.22 Yes Yes
2012DO O C 2012-04-20.22548 1.000E-05 14:54:14.260 1.500E-01 0.500 F 0.274 -0.114 +03° 33' 40.10" 1.000E-01 0.500 F 0.152 -0.132 18.1 V 0.70 0.42 o 691 0.35 Yes Yes
2012DO O C 2012-04-20.24324 1.000E-05 14:54:16.460 1.500E-01 0.500 F 0.274 -0.320 +03° 34' 17.50" 1.000E-01 0.500 F 0.152 -0.191 17.8 V 0.70 0.12 o 691 0.75 Yes Yes
2012DO O C 2012-04-20.26100 1.000E-05 14:54:18.660 1.500E-01 0.500 F 0.274 -0.137 +03° 34' 54.80" 1.000E-01 0.500 F 0.152 -0.281 19.0 V 0.70 1.31 o 691 0.63 Yes Yes
2008HW1 O C 2012-04-20.28770 1.000E-05 15:01:23.470 1.500E-01 0.500 F 0.214 -2.844 +02° 39' 25.40" 1.000E-01 0.500 F 0.215 1.793 19.5 V 0.70 -0.71 o 691 6.71 No Yes
2008HW1 O C 2012-04-20.30545 1.000E-05 15:01:21.500 1.500E-01 0.500 F 0.214 -0.126 +02° 39' 41.80" 1.000E-01 0.500 F 0.215 -0.313 20.0 V 0.70 -0.21 o 691 0.68 Yes Yes
2008HW1 O C 2012-04-20.32320 1.000E-05 15:01:19.340 1.500E-01 0.500 F 0.214 -0.215 +02° 40' 00.60" 1.000E-01 0.500 F 0.215 -0.021 20.0 V 0.70 -0.21 o 691 0.43 Yes Yes
2010LJ14 O C H 2012-04-20.46456 1.000E-05 16:10:59.160 1.500E-01 0.500 F 0.123 0.209 -00° 35' 27.40" 1.000E-01 0.500 F 0.158 -0.058 19.7 V 0.70 0.53 o 691 0.43 Yes Yes
2010LJ14 O C H 2012-04-20.48234 1.000E-05 16:10:57.890 1.500E-01 0.500 F 0.123 0.560 -00° 35' 09.90" 1.000E-01 0.500 F 0.158 -0.332 o 691 1.30 Yes No
2010LJ14 O C H 2012-04-20.50011 1.000E-05 16:10:56.560 1.500E-01 0.500 F 0.123 -0.051 -00° 34' 51.40" 1.000E-01 0.500 F 0.158 0.406 19.3 V 0.70 0.13 o 691 0.82 Yes Yes
2004FF29 O C 2012-04-21.22508 1.000E-05 15:16:19.530 1.500E-01 0.500 F 0.063 0.362 -04° 05' 31.70" 1.000E-01 0.500 F 0.164 0.173 18.4 V 0.70 0.31 o 691 0.80 Yes Yes
2004FF29 O C 2012-04-21.24286 1.000E-05 15:16:16.280 1.500E-01 0.500 F 0.063 -0.107 -04° 05' 37.90" 1.000E-01 0.500 F 0.164 -0.118 18.3 V 0.70 0.21 o 691 0.32 Yes Yes
2004FF29 O C 2012-04-21.26061 1.000E-05 15:16:13.050 1.500E-01 0.500 F 0.063 -0.236 -04° 05' 43.70" 1.000E-01 0.500 F 0.164 -0.028 18.3 V 0.70 0.21 o 691 0.48 Yes Yes
1998KV2 O C 2012-04-21.39824 1.000E-05 16:05:10.090 1.500E-01 0.500 F 0.048 -0.213 -06° 02' 41.80" 1.000E-01 0.500 F 0.217 -0.155 18.1 V 0.70 0.08 o 691 0.53 Yes Yes
1998KV2 O C 2012-04-21.41600 1.000E-05 16:05:08.170 1.500E-01 0.500 F 0.048 -0.189 -06° 02' 50.30" 1.000E-01 0.500 F 0.217 -0.105 18.2 V 0.70 0.18 o 691 0.43 Yes Yes
1998KV2 O C 2012-04-21.43375 1.000E-05 16:05:06.250 1.500E-01 0.500 F 0.048 -0.186 -06° 02' 58.90" 1.000E-01 0.500 F 0.217 -0.174 18.3 V 0.70 0.28 o 691 0.51 Yes Yes
2007UB6 O C H 2012-04-21.46150 1.000E-05 15:43:08.560 1.500E-01 0.500 F 0.131 -0.160 -04° 36' 32.40" 1.000E-01 0.500 F 0.079 0.239 19.8 V 0.70 0.29 o 691 0.58 Yes Yes
2004VB O C 2012-04-21.46398 1.000E-05 15:46:47.770 1.500E-01 0.500 F 0.103 -0.030 -04° 11' 12.90" 1.000E-01 0.500 F 0.096 -0.091 19.5 V 0.70 0.19 o 691 0.19 Yes Yes
2006VY13 O C 2012-04-21.46647 1.000E-05 15:52:30.750 1.500E-01 0.500 F 0.261 -0.134 -05° 16' 32.20" 1.000E-01 0.500 F 0.013 0.076 17.1 V 0.70 -0.06 o 691 0.31 Yes Yes
2007UB6 O C H 2012-04-21.47928 1.000E-05 15:43:07.340 1.500E-01 0.500 F 0.131 0.332 -04° 36' 46.20" 1.000E-01 0.500 F 0.079 0.181 19.7 V 0.70 0.19 o 691 0.76 Yes Yes
2004VB O C 2012-04-21.48176 1.000E-05 15:46:43.560 1.500E-01 0.500 F 0.103 -0.206 -04° 11' 50.10" 1.000E-01 0.500 F 0.096 -0.187 19.2 V 0.70 -0.11 o 691 0.56 Yes Yes
2006VY13 O C 2012-04-21.48424 1.000E-05 15:52:29.660 1.500E-01 0.500 F 0.261 -0.110 -05° 16' 30.60" 1.000E-01 0.500 F 0.013 0.157 17.0 V 0.70 -0.16 o 691 0.38 Yes Yes
2007UB6 O C H 2012-04-21.49703 1.000E-05 15:43:06.070 1.500E-01 0.500 F 0.131 -0.054 -04° 37' 00.20" 1.000E-01 0.500 F 0.079 -0.103 19.7 V 0.70 0.20 o 691 0.23 Yes Yes
2004VB O C 2012-04-21.49951 1.000E-05 15:46:39.360 1.500E-01 0.500 F 0.103 -0.564 -04° 12' 27.20" 1.000E-01 0.500 F 0.096 -0.281 19.4 V 0.70 0.09 o 691 1.27 Yes Yes
2006VY13 O C 2012-04-21.50199 1.000E-05 15:52:28.590 1.500E-01 0.500 F 0.261 0.084 -05° 16' 29.10" 1.000E-01 0.500 F 0.013 0.127 17.1 V 0.70 -0.06 o 691 0.31 Yes Yes
2012HR69 O C 2012-04-22.26908 1.000E-05 15:10:56.410 1.500E-01 0.500 F 0.084 0.218 -00° 51' 29.70" 1.000E-01 0.500 F 0.197 0.021 21.0 V 0.70 0.09 o 691 0.44 Yes Yes
2012HR69 O C 2012-04-22.28685 1.000E-05 15:10:55.800 1.500E-01 0.500 F 0.084 -0.200 -00° 51' 18.20" 1.000E-01 0.500 F 0.197 0.039 20.9 V 0.70 -0.01 o 691 0.41 Yes Yes
2012HR69 O C 2012-04-22.30460 1.000E-05 15:10:55.200 1.500E-01 0.500 F 0.084 -0.407 -00° 51' 06.80" 1.000E-01 0.500 F 0.197 -0.032 20.6 V 0.70 -0.31 o 691 0.82 Yes Yes
2001SZ269 O C t 2012-04-22.42684 1.000E-05 16:36:50.710 1.500E-01 0.500 F 0.049 -0.758 -03° 12' 05.00" 1.000E-01 0.500 F 0.088 -1.006 16.8 V 0.70 0.00 o 691 2.56 Yes Yes
2001SZ269 O C t 2012-04-22.44459 1.000E-05 16:37:02.450 1.500E-01 0.500 F 0.049 -1.244 -03° 11' 32.50" 1.000E-01 0.500 F 0.088 -1.395 16.7 V 0.70 -0.10 o 691 3.68 No Yes
2001SZ269 O C t 2012-04-22.46237 1.000E-05 16:37:14.350 1.500E-01 0.500 F 0.049 -0.133 -03° 10' 58.50" 1.000E-01 0.500 F 0.088 -0.456 16.7 V 0.70 -0.09 o 691 0.97 Yes Yes
2004FE31 O C 2012-04-23.15200 1.000E-05 13:19:02.680 1.500E-01 0.500 F 0.209 0.187 -05° 20' 15.30" 1.000E-01 0.500 F -0.015 0.010 20.3 V 0.70 0.39 o 691 0.38 Yes Yes
2004FE31 O C 2012-04-23.16725 1.000E-05 13:19:01.180 1.500E-01 0.500 F 0.209 -1.199 -05° 20' 00.10" 1.000E-01 0.500 F -0.015 -0.498 20.4 V 0.70 0.49 o 691 2.60 Yes Yes
2004FE31 O C 2012-04-23.18252 1.000E-05 13:18:59.810 1.500E-01 0.500 F 0.209 -0.573 -05° 19' 44.00" 1.000E-01 0.500 F -0.015 -0.131 20.5 V 0.70 0.59 o 691 1.18 Yes Yes
2012HO2 O C 2012-04-23.31487 1.000E-05 14:32:04.660 1.500E-01 0.500 F 0.268 -0.698 -09° 26' 39.10" 1.000E-01 0.500 F 0.070 0.261 20.3 V 0.70 0.32 o 691 1.51 Yes Yes
2012HO2 O C 2012-04-23.33344 1.000E-05 14:32:01.980 1.500E-01 0.500 F 0.268 -0.327 -09° 25' 43.00" 1.000E-01 0.500 F 0.070 -0.328 19.8 V 0.70 -0.18 o 691 0.94 Yes Yes
2012HO2 O C 2012-04-23.35200 1.000E-05 14:31:59.270 1.500E-01 0.500 F 0.268 -0.440 -09° 24' 45.90" 1.000E-01 0.500 F 0.070 0.095 20.2 V 0.70 0.22 o 691 0.91 Yes Yes
2003FB O C 2012-04-24.15379 1.000E-05 13:10:18.580 1.500E-01 0.500 F 0.268 -0.679 +02° 40' 15.30" 1.000E-01 0.500 F 0.213 -0.313 20.1 V 0.70 0.83 o 691 1.50 Yes Yes
2003FB O C 2012-04-24.16904 1.000E-05 13:10:16.660 1.500E-01 0.500 F 0.268 -0.257 +02° 40' 00.20" 1.000E-01 0.500 F 0.213 -0.192 20.0 V 0.70 0.72 o 691 0.64 Yes Yes
2003FB O C 2012-04-24.18431 1.000E-05 13:10:14.680 1.500E-01 0.500 F 0.268 -0.642 +02° 39' 45.40" 1.000E-01 0.500 F 0.213 0.252 19.6 V 0.70 0.32 o 691 1.38 Yes Yes
2008HW1 O C 2012-04-24.20380 1.000E-05 14:53:09.870 1.500E-01 0.500 F 0.274 0.062 +03° 48' 58.60" 1.000E-01 0.500 F 0.152 0.351 20.2 V 0.70 0.16 o 691 0.71 Yes Yes
2008HW1 O C 2012-04-24.22156 1.000E-05 14:53:07.510 1.500E-01 0.500 F 0.274 0.695 +03° 49' 16.40" 1.000E-01 0.500 F 0.152 -1.211 19.8 V 0.70 -0.24 o 691 2.80 Yes Yes
2008HW1 O C 2012-04-24.23934 1.000E-05 14:53:05.020 1.500E-01 0.500 F 0.274 -0.506 +03° 49' 36.90" 1.000E-01 0.500 F 0.152 -0.095 20.0 V 0.70 -0.04 o 691 1.03 Yes Yes
2012HQ2 O C H 2012-04-24.31433 1.000E-05 15:13:33.250 1.500E-01 0.500 F 0.117 0.433 -12° 38' 46.60" 1.000E-01 0.500 F 0.154 -0.161 o 691 1.01 Yes No
2012HQ2 O C H 2012-04-24.33215 1.000E-05 15:13:35.250 1.500E-01 0.500 F 0.117 -0.007 -12° 38' 36.10" 1.000E-01 0.500 F 0.154 -0.332 o 691 0.70 Yes No
2012HQ2 O C H 2012-04-24.34996 1.000E-05 15:13:37.260 1.500E-01 0.500 F 0.117 -0.123 -12° 38' 25.50" 1.000E-01 0.500 F 0.154 -0.572 o 691 1.24 Yes No
2010LJ14 O C 2012-04-24.44616 1.000E-05 16:06:07.710 1.500E-01 0.500 F 0.203 -0.099 +00° 28' 57.30" 1.000E-01 0.500 F 0.088 -0.352 19.4 V 0.70 0.27 o 691 0.73 Yes Yes
2010LJ14 O C 2012-04-24.46393 1.000E-05 16:06:06.260 1.500E-01 0.500 F 0.203 -0.132 +00° 29' 14.30" 1.000E-01 0.500 F 0.088 -0.032 19.6 V 0.70 0.47 o 691 0.27 Yes Yes
2010LJ14 O C 2012-04-24.48166 1.000E-05 16:06:04.810 1.500E-01 0.500 F 0.203 -0.265 +00° 29' 31.70" 1.000E-01 0.500 F 0.088 0.732 19.4 V 0.70 0.27 o 691 1.56 Yes Yes
2000FO10 O C 2012-04-27.14771 1.000E-05 13:20:08.470 1.500E-01 0.500 F 0.155 -0.231 -03° 32' 11.70" 1.000E-01 0.500 F 0.046 0.242 16.6 V 0.70 0.05 o 691 0.67 Yes Yes
2004FE31 O C 2012-04-27.15539 1.000E-05 13:13:07.990 1.500E-01 0.500 F 0.141 -0.161 -04° 11' 56.10" 1.000E-01 0.500 F 0.094 -0.197 20.4 V 0.70 0.39 o 691 0.51 Yes Yes
2000FO10 O C 2012-04-27.16294 1.000E-05 13:20:04.280 1.500E-01 0.500 F 0.155 0.062 -03° 31' 23.40" 1.000E-01 0.500 F 0.046 0.081 16.6 V 0.70 0.05 o 691 0.20 Yes Yes
2004FE31 O C 2012-04-27.17059 1.000E-05 13:13:06.600 1.500E-01 0.500 F 0.141 -0.599 -04° 11' 40.50" 1.000E-01 0.500 F 0.094 0.058 20.4 V 0.70 0.39 o 691 1.20 Yes Yes
2000FO10 O C 2012-04-27.17815 1.000E-05 13:20:00.060 1.500E-01 0.500 F 0.155 -0.059 -03° 30' 34.90" 1.000E-01 0.500 F 0.046 0.177 16.5 V 0.70 -0.05 o 691 0.37 Yes Yes
2004FE31 O C 2012-04-27.18580 1.000E-05 13:13:05.270 1.500E-01 0.500 F 0.141 -0.091 -04° 11' 25.20" 1.000E-01 0.500 F 0.094 0.001 20.1 V 0.70 0.09 o 691 0.18 Yes Yes
2012HN13 O C 2012-04-27.43344 1.000E-05 16:30:53.040 1.500E-01 0.500 F 0.106 -0.415 +00° 50' 10.80" 1.000E-01 0.500 F 0.199 -0.054 19.9 V 0.70 0.05 o 691 0.84 Yes Yes
2012HN13 O C 2012-04-27.45120 1.000E-05 16:30:58.740 1.500E-01 0.500 F 0.106 -0.039 +00° 51' 12.10" 1.000E-01 0.500 F 0.199 0.203 20.0 V 0.70 0.15 o 691 0.42 Yes Yes
2012HN13 O C 2012-04-27.46895 1.000E-05 16:31:04.430 1.500E-01 0.500 F 0.106 -0.088 +00° 52' 13.50" 1.000E-01 0.500 F 0.199 0.549 19.6 V 0.70 -0.25 o 691 1.12 Yes Yes
2012HL8 O C H 2012-04-28.38801 1.000E-05 15:53:36.800 1.500E-01 0.500 F 0.171 -1.165 -11° 10' 30.50" 1.000E-01 0.500 F 0.156 -0.868 o 691 2.98 Yes No
2012HL8 O C H 2012-04-28.40650 1.000E-05 15:53:40.910 1.500E-01 0.500 F 0.171 0.334 -11° 10' 54.80" 1.000E-01 0.500 F 0.156 -0.880 o 691 1.93 Yes No
2010LJ14 O C 2012-04-28.44253 1.000E-05 16:00:44.360 1.500E-01 0.500 F 0.119 -0.123 +01° 28' 58.80" 1.000E-01 0.500 F 0.070 -0.030 18.9 V 0.70 -0.20 o 691 0.25 Yes Yes
2010LJ14 O C 2012-04-28.46027 1.000E-05 16:00:42.810 1.500E-01 0.500 F 0.119 0.034 +01° 29' 13.90" 1.000E-01 0.500 F 0.070 -0.178 18.9 V 0.70 -0.20 o 691 0.36 Yes Yes
2010LJ14 O C 2012-04-28.47800 1.000E-05 16:00:41.250 1.500E-01 0.500 F 0.119 -0.031 +01° 29' 29.30" 1.000E-01 0.500 F 0.070 -0.008 19.0 V 0.70 -0.10 o 691 0.06 Yes Yes
1996FR3 O C 2012-04-29.17089 1.000E-05 13:10:44.380 1.500E-01 0.500 F 0.126 -0.176 -07° 37' 22.70" 1.000E-01 0.500 F 0.110 0.084 19.2 V 0.70 0.03 o 691 0.39 Yes Yes
1996FR3 O C 2012-04-29.18862 1.000E-05 13:10:42.810 1.500E-01 0.500 F 0.126 -0.343 -07° 37' 16.60" 1.000E-01 0.500 F 0.110 -0.063 19.2 V 0.70 0.03 o 691 0.70 Yes Yes
1996FR3 O C 2012-04-29.20636 1.000E-05 13:10:41.250 1.500E-01 0.500 F 0.126 -0.332 -07° 37' 10.10" 1.000E-01 0.500 F 0.110 0.182 19.3 V 0.70 0.13 o 691 0.76 Yes Yes
2004LB6 O C 2012-04-29.38705 1.000E-05 15:39:33.920 1.500E-01 0.500 F 0.050 -0.424 -13° 49' 47.10" 1.000E-01 0.500 F 0.150 -0.348 21.1 V 0.70 0.38 o 691 1.10 Yes Yes
2012DX32 O C 2012-04-29.39203 1.000E-05 15:52:19.230 1.500E-01 0.500 F 0.098 -0.023 -13° 13' 50.70" 1.000E-01 0.500 F 0.152 0.179 20.0 V 0.70 0.19 o 691 0.37 Yes Yes
1998FH12 O C 2012-04-29.39452 1.000E-05 15:59:04.980 1.500E-01 0.500 F 0.158 -0.248 -12° 29' 55.50" 1.000E-01 0.500 F 0.190 -0.135 20.1 V 0.70 -0.02 o 691 0.56 Yes Yes
2012HG2 O C 2012-04-29.40221 1.000E-05 15:47:35.110 1.500E-01 0.500 F -0.014 -0.196 -15° 14' 19.00" 1.000E-01 0.500 F 0.161 -0.321 19.8 V 0.70 -0.04 o 691 0.76 Yes Yes
2004LB6 O C 2012-04-29.40484 1.000E-05 15:39:32.520 1.500E-01 0.500 F 0.050 0.795 -13° 49' 37.70" 1.000E-01 0.500 F 0.150 0.480 21.5 V 0.70 0.78 o 691 1.86 Yes Yes
2012DX32 O C 2012-04-29.40981 1.000E-05 15:52:19.470 1.500E-01 0.500 F 0.098 -0.222 -13° 13' 54.00" 1.000E-01 0.500 F 0.152 0.095 19.9 V 0.70 0.09 o 691 0.50 Yes Yes
1998FH12 O C 2012-04-29.41229 1.000E-05 15:59:02.580 1.500E-01 0.500 F 0.158 -0.195 -12° 29' 45.30" 1.000E-01 0.500 F 0.190 0.024 19.9 V 0.70 -0.21 o 691 0.39 Yes Yes
2012HG2 O C 2012-04-29.41998 1.000E-05 15:47:34.680 1.500E-01 0.500 F -0.014 -0.156 -15° 14' 46.40" 1.000E-01 0.500 F 0.161 0.086 19.7 V 0.70 -0.14 o 691 0.36 Yes Yes
2004LB6 O C 2012-04-29.42261 1.000E-05 15:39:30.960 1.500E-01 0.500 F 0.050 -0.356 -13° 49' 29.80" 1.000E-01 0.500 F 0.150 -0.204 21.1 V 0.70 0.38 o 691 0.82 Yes Yes
2012DX32 O C 2012-04-29.42758 1.000E-05 15:52:19.720 1.500E-01 0.500 F 0.098 -0.354 -13° 13' 57.30" 1.000E-01 0.500 F 0.152 -0.067 19.8 V 0.70 -0.01 o 691 0.74 Yes Yes
1998FH12 O C 2012-04-29.43007 1.000E-05 15:59:00.140 1.500E-01 0.500 F 0.158 -0.725 -12° 29' 35.40" 1.000E-01 0.500 F 0.190 -0.156 20.3 V 0.70 0.19 o 691 1.48 Yes Yes
2012HG2 O C 2012-04-29.43775 1.000E-05 15:47:34.360 1.500E-01 0.500 F -0.014 0.083 -15° 15' 13.20" 1.000E-01 0.500 F 0.161 0.020 19.8 V 0.70 -0.04 o 691 0.17 Yes Yes
2012HR69 O C 2012-04-30.26910 1.000E-05 15:06:05.890 1.500E-01 0.500 F 0.142 -0.180 +00° 33' 57.80" 1.000E-01 0.500 F 0.199 -0.012 20.7 V 0.70 0.10 o 691 0.37 Yes Yes
2012HR69 O C 2012-04-30.28686 1.000E-05 15:06:05.030 1.500E-01 0.500 F 0.142 -0.215 +00° 34' 08.80" 1.000E-01 0.500 F 0.199 -0.113 20.7 V 0.70 0.10 o 691 0.49 Yes Yes
2012HR69 O C 2012-04-30.30458 1.000E-05 15:06:04.180 1.500E-01 0.500 F 0.142 -0.077 +00° 34' 20.00" 1.000E-01 0.500 F 0.199 0.014 20.7 V 0.70 0.10 o 691 0.16 Yes Yes
2007UB6 O C 2012-04-30.31714 1.000E-05 15:30:53.070 1.500E-01 0.500 F 0.062 -0.146 -06° 53' 36.50" 1.000E-01 0.500 F 0.172 0.093 19.4 V 0.70 0.40 o 691 0.35 Yes Yes
2007UB6 O C 2012-04-30.33490 1.000E-05 15:30:51.140 1.500E-01 0.500 F 0.062 0.000 -06° 53' 56.20" 1.000E-01 0.500 F 0.172 -0.261 19.1 V 0.70 0.10 o 691 0.52 Yes Yes
2007UB6 O C 2012-04-30.35265 1.000E-05 15:30:49.170 1.500E-01 0.500 F 0.062 -0.425 -06° 54' 14.90" 1.000E-01 0.500 F 0.172 0.358 19.3 V 0.70 0.30 o 691 1.12 Yes Yes
2004FE31 O C 2012-05-01.14041 1.000E-05 13:07:30.650 1.500E-01 0.500 F 0.124 0.200 -03° 05' 57.60" 1.000E-01 0.500 F 0.150 0.088 20.1 V 0.70 0.00 o 691 0.44 Yes Yes
2004FE31 O C 2012-05-01.15812 1.000E-05 13:07:29.110 1.500E-01 0.500 F 0.124 -0.395 -03° 05' 40.10" 1.000E-01 0.500 F 0.150 0.402 20.2 V 0.70 0.10 o 691 1.13 Yes Yes
2004FE31 O C 2012-05-01.17584 1.000E-05 13:07:27.610 1.500E-01 0.500 F 0.124 -0.334 -03° 05' 23.10" 1.000E-01 0.500 F 0.150 0.206 20.2 V 0.70 0.10 o 691 0.78 Yes Yes
2004FF29 O C 2012-05-01.20528 1.000E-05 14:49:38.390 1.500E-01 0.500 F 0.132 -0.309 -05° 01' 07.60" 1.000E-01 0.500 F -0.018 0.056 18.4 V 0.70 0.16 o 691 0.63 Yes Yes
2004FF29 O C 2012-05-01.22650 1.000E-05 14:49:35.280 1.500E-01 0.500 F 0.132 -0.312 -05° 01' 15.00" 1.000E-01 0.500 F -0.018 0.008 18.8 V 0.70 0.56 o 691 0.63 Yes Yes
2004FF29 O C 2012-05-01.24423 1.000E-05 14:49:32.670 1.500E-01 0.500 F 0.132 -0.405 -05° 01' 21.30" 1.000E-01 0.500 F -0.018 -0.163 18.7 V 0.70 0.46 o 691 0.87 Yes Yes
2003HB6 O C H 2012-05-01.37719 1.000E-05 16:18:21.830 1.500E-01 0.500 F 0.027 0.444 -06° 29' 00.30" 1.000E-01 0.500 F 0.159 -0.770 o 691 1.78 Yes No
2003HB6 O C H 2012-05-01.39492 1.000E-05 16:18:21.960 1.500E-01 0.500 F 0.027 0.330 -06° 28' 46.30" 1.000E-01 0.500 F 0.159 -1.067 o 691 2.24 Yes No
2003HB6 O C H 2012-05-01.41264 1.000E-05 16:18:22.090 1.500E-01 0.500 F 0.027 0.210 -06° 28' 31.80" 1.000E-01 0.500 F 0.159 -0.877 o 691 1.81 Yes No
1998QK56 O C H 2012-05-02.21508 1.000E-05 15:10:20.850 1.500E-01 0.500 F 0.122 -0.201 +04° 13' 47.30" 1.000E-01 0.500 F 0.073 0.353 o 691 0.81 Yes No
1998QK56 O C H 2012-05-02.23282 1.000E-05 15:10:19.280 1.500E-01 0.500 F 0.122 0.944 +04° 13' 55.20" 1.000E-01 0.500 F 0.073 -1.379 o 691 3.34 No No
1998QK56 O C H 2012-05-02.25052 1.000E-05 15:10:17.570 1.500E-01 0.500 F 0.122 -0.008 +04° 14' 05.50" 1.000E-01 0.500 F 0.073 -0.676 o 691 1.35 Yes No
2002GK8 O C H 2012-05-02.27905 1.000E-05 15:24:27.660 1.500E-01 0.500 F 0.222 0.050 -13° 12' 13.60" 1.000E-01 0.500 F 0.026 -0.459 o 691 0.93 Yes No
2002GK8 O C H 2012-05-02.29681 1.000E-05 15:24:24.170 1.500E-01 0.500 F 0.222 0.179 -13° 12' 57.60" 1.000E-01 0.500 F 0.026 0.162 o 691 0.49 Yes No
2002GK8 O C H 2012-05-02.31458 1.000E-05 15:24:20.680 1.500E-01 0.500 F 0.222 0.420 -13° 13' 42.50" 1.000E-01 0.500 F 0.026 -0.108 o 691 0.87 Yes No
2012HJ1 O C 2012-05-02.32885 1.000E-05 14:35:04.120 1.500E-01 0.500 F 0.234 -0.215 -09° 22' 19.10" 1.000E-01 0.500 F 0.148 0.082 18.8 V 0.70 0.13 o 691 0.46 Yes Yes
2012HJ1 O C 2012-05-02.34733 1.000E-05 14:35:00.790 1.500E-01 0.500 F 0.234 -0.234 -09° 22' 33.90" 1.000E-01 0.500 F 0.148 0.026 18.8 V 0.70 0.13 o 691 0.47 Yes Yes
1998FH12 O C H 2012-05-02.36012 1.000E-05 15:52:19.770 1.500E-01 0.500 F 0.097 0.198 -12° 01' 19.10" 1.000E-01 0.500 F 0.119 -0.564 o 691 1.20 Yes No
2012HJ1 O C 2012-05-02.36582 1.000E-05 14:34:57.460 1.500E-01 0.500 F 0.234 -0.241 -09° 22' 48.70" 1.000E-01 0.500 F 0.148 -0.038 18.7 V 0.70 0.03 o 691 0.49 Yes Yes
1998FH12 O C H 2012-05-02.37862 1.000E-05 15:52:17.020 1.500E-01 0.500 F 0.097 0.037 -12° 01' 08.20" 1.000E-01 0.500 F 0.119 -0.708 o 691 1.42 Yes No
2012HG31 O C 2012-05-12.27349 1.000E-05 16:07:26.540 1.500E-01 0.500 F 0.182 -0.362 +08° 16' 16.60" 1.000E-01 0.500 F 0.208 0.061 19.5 V 0.70 -0.03 o 691 0.74 Yes Yes
2012HG31 O C 2012-05-12.29142 1.000E-05 16:07:25.740 1.500E-01 0.500 F 0.182 0.003 +08° 16' 39.00" 1.000E-01 0.500 F 0.208 -0.033 19.6 V 0.70 0.07 o 691 0.07 Yes Yes
2012HG31 O C 2012-05-12.30936 1.000E-05 16:07:24.890 1.500E-01 0.500 F 0.182 -0.304 +08° 17' 01.20" 1.000E-01 0.500 F 0.208 -0.317 19.3 V 0.70 -0.22 o 691 0.88 Yes Yes
1998HL1 O C 2012-05-13.19466 1.000E-05 16:13:26.060 1.500E-01 0.500 F 0.148 -0.264 +06° 54' 45.00" 1.000E-01 0.500 F 0.169 0.015 19.1 V 0.70 0.42 o 691 0.53 Yes Yes
1998HL1 O C 2012-05-13.21237 1.000E-05 16:13:24.500 1.500E-01 0.500 F 0.148 -0.181 +06° 55' 44.60" 1.000E-01 0.500 F 0.169 0.155 19.0 V 0.70 0.32 o 691 0.48 Yes Yes
1998HL1 O C 2012-05-13.23007 1.000E-05 16:13:22.920 1.500E-01 0.500 F 0.148 -0.217 +06° 56' 45.20" 1.000E-01 0.500 F 0.169 1.351 18.5 V 0.70 -0.18 o 691 2.74 Yes Yes
2004RU331 O C 2012-05-14.37988 1.000E-05 17:00:38.440 1.500E-01 0.500 F 0.053 -0.136 +11° 09' 52.50" 1.000E-01 0.500 F 0.244 0.138 20.7 V 0.70 -0.14 o 691 0.39 Yes Yes
2004RU331 O C 2012-05-14.39762 1.000E-05 17:00:36.360 1.500E-01 0.500 F 0.053 -0.710 +11° 10' 22.00" 1.000E-01 0.500 F 0.244 0.293 20.6 V 0.70 -0.24 o 691 1.55 Yes Yes
2004RU331 O C 2012-05-14.41538 1.000E-05 17:00:34.290 1.500E-01 0.500 F 0.053 -1.124 +11° 10' 51.10" 1.000E-01 0.500 F 0.244 0.068 20.6 V 0.70 -0.24 o 691 2.27 Yes Yes
2001SL9 O C 2012-05-14.44315 1.000E-05 23:21:42.580 1.500E-01 0.500 F -0.220 -0.035 +15° 39' 55.20" 1.000E-01 0.500 F 0.192 0.278 20.8 V 0.70 0.47 o 691 0.56 Yes Yes
2001SL9 O C 2012-05-14.45589 1.000E-05 23:21:44.470 1.500E-01 0.500 F -0.220 -0.368 +15° 40' 07.90" 1.000E-01 0.500 F 0.192 -0.046 20.6 V 0.70 0.27 o 691 0.74 Yes Yes
2001SL9 O C 2012-05-14.46860 1.000E-05 23:21:46.370 1.500E-01 0.500 F -0.220 -0.460 +15° 40' 20.50" 1.000E-01 0.500 F 0.192 -0.434 20.6 V 0.70 0.27 o 691 1.26 Yes Yes
2012HY33 O C 2012-05-15.15506 1.000E-05 14:16:47.180 1.500E-01 0.500 F 0.006 -0.302 -02° 07' 17.30" 1.000E-01 0.500 F 0.130 0.227 20.6 V 0.70 -0.06 o 691 0.76 Yes Yes
2012HY33 O C 2012-05-15.17101 1.000E-05 14:16:45.150 1.500E-01 0.500 F 0.006 -0.154 -02° 07' 20.00" 1.000E-01 0.500 F 0.130 -0.218 20.6 V 0.70 -0.06 o 691 0.54 Yes Yes
2012HY33 O C 2012-05-15.18696 1.000E-05 14:16:43.060 1.500E-01 0.500 F 0.006 -0.853 -02° 07' 22.70" 1.000E-01 0.500 F 0.130 -0.661 20.8 V 0.70 0.14 o 691 2.17 Yes Yes
1998HL1 O C 2012-05-16.30882 1.000E-05 16:08:55.530 1.500E-01 0.500 F 0.138 -0.173 +09° 47' 03.80" 1.000E-01 0.500 F 0.203 0.041 18.8 V 0.70 0.11 o 691 0.36 Yes Yes
2012HG31 O C 2012-05-16.31642 1.000E-05 16:04:23.300 1.500E-01 0.500 F 0.216 -0.134 +09° 40' 22.80" 1.000E-01 0.500 F 0.176 -0.173 19.3 V 0.70 -0.09 o 691 0.44 Yes Yes
1998HL1 O C 2012-05-16.32658 1.000E-05 16:08:53.770 1.500E-01 0.500 F 0.138 -0.347 +09° 48' 02.20" 1.000E-01 0.500 F 0.203 0.085 18.7 V 0.70 0.01 o 691 0.72 Yes Yes
2012HG31 O C 2012-05-16.33416 1.000E-05 16:04:22.300 1.500E-01 0.500 F 0.216 -0.321 +09° 40' 45.10" 1.000E-01 0.500 F 0.176 0.077 19.5 V 0.70 0.11 o 691 0.66 Yes Yes
1998HL1 O C 2012-05-16.34433 1.000E-05 16:08:52.020 1.500E-01 0.500 F 0.138 -0.369 +09° 49' 00.50" 1.000E-01 0.500 F 0.203 0.115 18.8 V 0.70 0.11 o 691 0.78 Yes Yes
2012HG31 O C 2012-05-16.35192 1.000E-05 16:04:21.320 1.500E-01 0.500 F 0.216 -0.191 +09° 41' 07.20" 1.000E-01 0.500 F 0.176 0.134 19.4 V 0.70 0.01 o 691 0.47 Yes Yes
2012HY33 O C 2012-05-17.16804 1.000E-05 14:12:36.700 1.500E-01 0.500 F 0.013 -0.014 -02° 12' 38.70" 1.000E-01 0.500 F 0.151 0.114 20.6 V 0.70 -0.07 o 691 0.23 Yes Yes
2012HY33 O C 2012-05-17.18402 1.000E-05 14:12:34.690 1.500E-01 0.500 F 0.013 0.533 -02° 12' 41.50" 1.000E-01 0.500 F 0.151 0.203 20.6 V 0.70 -0.07 o 691 1.15 Yes Yes

[1-200] [201-400] [401-600] [601-800] [801-1000] [1001-1200] [1201-1400] [1401-1600] [1601-1800] [1801-2000] [2001-2200] [2201-2400] [2401-2600] [2601-2800] [2801-3000] [3001-3200] [3201-3400] [3401-3600] [3601-3800] [3801-4000] [4001-4200] [4201-4400] [4401-4600] [4601-4800] [4801-5000] [5001-5200] [5201-5400] [5401-5600] [5601-5800] [5801-6000] [6001-6200] [6201-6400] [6401-6600] [6601-6800] [6801-7000] [7001-7200] [7201-7400] [7401-7600] [7601-7800] [7801-8000] [8001-8200] [8201-8400] [8401-8600] [8601-8800] [8801-9000] [9001-9200] [9201-9400] [9401-9600] [9601-9800] [9801-10000] [10001-10200] [10201-10400] [10401-10600] [10601-10800] [10801-11000] [11001-11200] [11201-11400] [11401-11600] [11601-11800] [11801-12000] [12001-12200] [12201-12400] [12401-12600] [12601-12800] [12801-13000] [13001-13200] [13201-13400] [13401-13600] [13601-13800] [13801-14000] [14001-14200] [14201-14400] [14401-14600] [14601-14800] [14801-15000] [15001-15200] [15201-15400] [15401-15600] [15601-15800] [15801-16000] [16001-16200] [16201-16400] [16401-16600] [16601-16800] [16801-17000] [17001-17200] [17201-17400] [17401-17600] [17601-17800] [17801-18000] [18001-18200] [18201-18400] [18401-18600] [18601-18800] [18801-19000] [19001-19200] [19201-19400] [19401-19600] [19601-19800] [19801-20000] [20001-20200] [20201-20400] [20401-20600] [20601-20800] [20801-21000] [21001-21200] [21201-21400] [21401-21600] [21601-21800] [21801-22000] [22001-22200] [22201-22400] [22401-22600] [22601-22800] [22801-23000] [23001-23200] [23201-23400] [23401-23600] [23601-23800] [23801-24000] [24001-24200] [24201-24400] [24401-24600] [24601-24800] [24801-25000] [25001-25200] [25201-25400] [25401-25600] [25601-25800] [25801-26000] [26001-26200] [26201-26400] [26401-26600] [26601-26800] [26801-27000] [27001-27200] [27201-27400] [27401-27600] [27601-27800] [27801-28000] [28001-28200] [28201-28400] [28401-28600] [28601-28800] [28801-29000] [29001-29200] [29201-29400] [29401-29600] [29601-29800] [29801-30000] [30001-30200] [30201-30400] [30401-30600] [30601-30800] [30801-31000] [31001-31200] [31201-31400] [31401-31600] [31601-31800] [31801-32000] [32001-32200] [32201-32400] [32401-32600] [32601-32800] [32801-33000] [33001-33200] [33201-33400] [33401-33600] [33601-33800] [33801-34000] [34001-34200] [34201-34400] [34401-34600] [34601-34800] [34801-35000] [35001-35200] [35201-35400] [35401-35600] [35601-35800] [35801-36000] [36001-36200] [36201-36400] [36401-36600] [36601-36800] [36801-37000] [37001-37200] [37201-37400] [37401-37600] [37601-37800] [37801-38000] [38001-38200] [38201-38400] [38401-38600] [38601-38800] [38801-39000] [39001-39200] [39201-39400] [39401-39600] [39601-39800] [39801-40000] [40001-40200] [40201-40400] [40401-40600] [40601-40800] [40801-41000] [41001-41200] [41201-41400] [41401-41600] [41601-41800] [41801-42000] [42001-42200] [42201-42400] [42401-42600] [42601-42800] [42801-43000] [43001-43200] [43201-43400] [43401-43600] [43601-43800] [43801-44000] [44001-44200] [44201-44400] [44401-44600] [44601-44800] [44801-45000] [45001-45200] [45201-45400] [45401-45600] [45601-45800] [45801-46000] [46001-46200] [46201-46400] [46401-46600] [46601-46800] [46801-47000] [47001-47200] [47201-47400] [47401-47600] [47601-47800] [47801-48000] [48001-48200] [48201-48400] [48401-48600] [48601-48800] [48801-49000] [49001-49200] [49201-49400] [49401-49600] [49601-49800] [49801-50000] [50001-50200] [50201-50400] [50401-50600] [50601-50741]